TimeCST,TemperatureF,Dew PointF,Humidity,Sea Level PressureIn,VisibilityMPH,Wind Direction,Wind SpeedMPH,Gust SpeedMPH,PrecipitationIn,Events,Conditions,WindDirDegrees,DateUTC
12:51 AM,54.0,50.0,86,30.31,10.0,NE,6.9,-,N/A,,Clear,40,2012-01-30 06:51:00
1:51 AM,54.0,50.0,86,30.30,10.0,NE,5.8,-,N/A,,Partly Cloudy,40,2012-01-30 07:51:00
2:51 AM,53.1,48.9,86,30.28,10.0,NNE,8.1,-,N/A,,Scattered Clouds,20,2012-01-30 08:51:00
3:51 AM,54.0,48.9,83,30.26,10.0,North,8.1,-,N/A,,Mostly Cloudy,10,2012-01-30 09:51:00
4:51 AM,54.0,50.0,86,30.24,10.0,NNE,5.8,-,N/A,,Overcast,20,2012-01-30 10:51:00
5:43 AM,55.4,50.0,82,30.24,10.0,North,5.8,-,N/A,,Overcast,10,2012-01-30 11:43:00
5:51 AM,55.0,50.0,83,30.25,10.0,North,5.8,-,N/A,,Mostly Cloudy,10,2012-01-30 11:51:00
6:28 AM,55.4,50.0,82,30.24,10.0,North,4.6,-,N/A,,Overcast,10,2012-01-30 12:28:00
6:51 AM,55.9,51.1,84,30.25,10.0,North,4.6,-,N/A,,Overcast,10,2012-01-30 12:51:00
7:51 AM,57.9,53.1,84,30.26,10.0,NE,5.8,-,N/A,,Mostly Cloudy,40,2012-01-30 13:51:00
8:51 AM,61.0,55.0,81,30.26,10.0,NE,5.8,-,N/A,,Mostly Cloudy,50,2012-01-30 14:51:00
9:51 AM,64.9,57.9,78,30.26,10.0,ENE,8.1,-,N/A,,Mostly Cloudy,70,2012-01-30 15:51:00
10:51 AM,69.1,59.0,70,30.27,10.0,East,10.4,-,N/A,,Mostly Cloudy,100,2012-01-30 16:51:00
11:51 AM,70.0,60.1,71,30.25,10.0,ESE,11.5,-,N/A,,Overcast,120,2012-01-30 17:51:00
12:51 PM,71.1,60.1,68,30.21,10.0,ESE,17.3,-,N/A,,Overcast,110,2012-01-30 18:51:00
1:51 PM,71.1,59.0,66,30.17,10.0,SE,18.4,-,N/A,,Overcast,130,2012-01-30 19:51:00
2:51 PM,70.0,60.1,71,30.14,10.0,ESE,17.3,-,0.00,Rain,Light Rain,120,2012-01-30 20:51:00
3:00 PM,69.8,60.8,73,30.14,6.0,ESE,18.4,-,0.00,Rain,Light Rain,120,2012-01-30 21:00:00
3:43 PM,68.0,62.6,83,30.14,10.0,SE,19.6,-,0.04,Rain,Light Rain,130,2012-01-30 21:43:00
3:51 PM,68.0,62.1,81,30.14,10.0,SE,16.1,-,0.04,,Overcast,140,2012-01-30 21:51:00
4:51 PM,68.0,63.0,84,30.14,10.0,SE,9.2,-,N/A,,Overcast,140,2012-01-30 22:51:00
5:51 PM,66.9,62.1,84,30.12,10.0,SE,10.4,-,N/A,,Mostly Cloudy,140,2012-01-30 23:51:00
6:51 PM,66.0,62.1,87,30.13,10.0,SE,9.2,-,N/A,,Mostly Cloudy,130,2012-01-31 00:51:00
7:51 PM,66.0,62.1,87,30.14,10.0,SE,9.2,-,N/A,,Mostly Cloudy,140,2012-01-31 01:51:00
8:51 PM,66.9,63.0,87,30.15,10.0,SE,9.2,-,N/A,,Overcast,130,2012-01-31 02:51:00
9:51 PM,64.0,62.1,93,30.15,10.0,SE,6.9,-,N/A,,Mostly Cloudy,130,2012-01-31 03:51:00
10:51 PM,64.9,62.1,90,30.14,10.0,SE,8.1,-,N/A,,Overcast,140,2012-01-31 04:51:00
11:51 PM,66.9,63.0,87,30.13,10.0,SE,10.4,-,N/A,,Mostly Cloudy,130,2012-01-31 05:51:00